createdAt,value
2019-04-27T00:02:26.561Z,99.90
2019-04-27T00:04:58.808Z,99.90
2019-04-27T00:07:28.853Z,99.90
2019-04-27T00:09:59.257Z,99.90
2019-04-27T00:12:28.137Z,99.90
2019-04-27T00:14:56.574Z,99.90
2019-04-27T00:17:44.934Z,99.90
2019-04-27T00:20:17.509Z,99.90
2019-04-27T00:22:50.522Z,99.90
2019-04-27T00:25:18.931Z,99.90
2019-04-27T00:27:47.346Z,99.90
2019-04-27T00:30:16.894Z,99.90
2019-04-27T00:32:45.303Z,99.90
2019-04-27T00:35:15.373Z,99.90
2019-04-27T00:38:00.450Z,99.90
2019-04-27T00:40:39.473Z,99.90
2019-04-27T00:43:07.882Z,99.90
2019-04-27T00:45:36.286Z,99.90
2019-04-27T00:48:04.772Z,99.90
2019-04-27T00:50:33.782Z,99.90
2019-04-27T00:53:03.433Z,99.90
2019-04-27T00:55:34.225Z,99.90
2019-04-27T00:58:19.345Z,99.90
2019-04-27T01:00:53.927Z,99.90
2019-04-27T01:03:43.065Z,99.90
2019-04-27T01:06:13.084Z,99.90
2019-04-27T01:08:42.776Z,99.90
2019-04-27T01:11:12.047Z,99.90
2019-04-27T01:13:40.462Z,99.90
2019-04-27T01:16:10.492Z,99.90
2019-04-27T01:18:39.019Z,99.90
2019-04-27T01:21:09.192Z,99.90
2019-04-27T01:23:38.536Z,99.90
2019-04-27T01:26:18.596Z,99.90
2019-04-27T01:28:49.040Z,99.90
2019-04-27T01:31:19.405Z,99.90
2019-04-27T01:33:48.881Z,99.90
2019-04-27T01:36:18.973Z,99.90
2019-04-27T01:38:49.551Z,99.90
2019-04-27T01:41:19.127Z,99.90
2019-04-27T01:43:49.039Z,99.90
2019-04-27T01:46:19.577Z,99.90
2019-04-27T01:48:49.009Z,99.90
2019-04-27T01:51:19.424Z,99.90
2019-04-27T01:53:49.157Z,99.90
2019-04-27T01:56:19.313Z,99.90
2019-04-27T01:58:49.403Z,99.90
2019-04-27T02:01:32.391Z,99.90
2019-04-27T02:04:09.252Z,99.90
2019-04-27T02:06:38.601Z,99.90
2019-04-27T02:09:09.611Z,99.90
2019-04-27T02:11:38.901Z,99.90
2019-04-27T02:14:09.444Z,99.90
2019-04-27T02:16:39.149Z,99.90
2019-04-27T02:19:09.065Z,99.90
2019-04-27T02:21:39.210Z,99.90
2019-04-27T02:24:09.737Z,99.90
2019-04-27T02:26:39.774Z,99.90
2019-04-27T02:29:12.457Z,99.90
2019-04-27T02:31:51.008Z,99.90
2019-04-27T02:34:21.050Z,99.90
2019-04-27T02:36:50.491Z,99.90
2019-04-27T02:39:19.752Z,99.90
2019-04-27T02:41:49.866Z,99.90
2019-04-27T02:44:20.970Z,99.90
2019-04-27T02:46:50.154Z,99.90
2019-04-27T02:49:20.139Z,99.90
2019-04-27T02:51:50.403Z,99.90
2019-04-27T02:54:20.405Z,99.90
2019-04-27T02:56:50.605Z,99.90
2019-04-27T02:59:19.876Z,99.90
2019-04-27T03:01:53.640Z,99.90
2019-04-27T03:04:22.265Z,99.90
2019-04-27T03:06:50.673Z,99.90
2019-04-27T03:09:20.440Z,99.90
2019-04-27T03:11:49.988Z,99.90
2019-04-27T03:14:29.664Z,99.90
2019-04-27T03:17:00.179Z,99.90
2019-04-27T03:19:32.850Z,99.90
2019-04-27T03:22:12.134Z,99.90
2019-04-27T03:24:59.934Z,99.90
2019-04-27T03:27:44.706Z,99.90
2019-04-27T03:30:15.153Z,99.90
2019-04-27T03:32:44.079Z,99.90
2019-04-27T03:35:13.713Z,99.90
2019-04-27T03:37:42.549Z,99.90
2019-04-27T03:40:12.698Z,99.90
2019-04-27T03:42:42.983Z,99.90
2019-04-27T03:45:11.572Z,99.90
2019-04-27T03:47:40.851Z,99.90
2019-04-27T03:50:12.209Z,99.90
2019-04-27T03:52:54.087Z,99.90
2019-04-27T03:55:42.853Z,99.90
2019-04-27T03:58:15.079Z,99.90
2019-04-27T04:00:43.504Z,99.90
2019-04-27T04:03:11.979Z,99.90
2019-04-27T04:05:40.383Z,99.90
2019-04-27T04:08:10.768Z,99.90
2019-04-27T04:10:41.639Z,99.90
2019-04-27T04:13:14.729Z,99.90
2019-04-27T04:16:01.266Z,99.90
2019-04-27T04:18:31.797Z,99.90
2019-04-27T04:21:00.627Z,99.90
2019-04-27T04:23:30.044Z,99.90
2019-04-27T04:25:59.688Z,99.90
2019-04-27T04:28:29.622Z,99.90
2019-04-27T04:31:00.490Z,99.90
2019-04-27T04:33:30.403Z,99.90
2019-04-27T04:35:59.712Z,99.90
2019-04-27T04:38:30.471Z,99.90
2019-04-27T04:41:00.266Z,99.90
2019-04-27T04:43:45.322Z,99.90
2019-04-27T04:46:31.769Z,99.90
2019-04-27T04:49:00.554Z,99.90
2019-04-27T04:51:30.307Z,99.90
2019-04-27T04:53:59.807Z,99.90
2019-04-27T04:56:29.209Z,99.90
2019-04-27T04:58:59.953Z,99.90
2019-04-27T05:01:29.888Z,99.90
2019-04-27T05:03:59.038Z,99.90
2019-04-27T05:06:29.251Z,99.90
2019-04-27T05:08:59.358Z,99.90
2019-04-27T05:11:29.796Z,99.90
2019-04-27T05:13:59.333Z,99.90
2019-04-27T05:16:28.709Z,99.90
2019-04-27T05:18:57.241Z,99.90
2019-04-27T05:21:31.254Z,99.90
2019-04-27T05:24:00.731Z,99.90
2019-04-27T05:26:29.532Z,99.90
2019-04-27T05:28:59.324Z,99.90
2019-04-27T05:31:29.255Z,99.90
2019-04-27T05:33:59.352Z,99.90
2019-04-27T05:36:29.630Z,99.90
2019-04-27T05:38:59.713Z,99.90
2019-04-27T05:41:31.160Z,99.90
2019-04-27T05:44:03.187Z,99.90
2019-04-27T05:46:53.425Z,99.90
2019-04-27T05:49:31.804Z,99.90
2019-04-27T05:52:08.561Z,99.90
2019-04-27T05:54:40.709Z,99.90
2019-04-27T05:57:09.538Z,99.90
2019-04-27T05:59:39.830Z,99.90
2019-04-27T06:02:09.330Z,99.90
2019-04-27T06:04:39.065Z,99.90
2019-04-27T06:07:09.217Z,99.90
2019-04-27T06:09:39.152Z,99.90
2019-04-27T06:12:08.949Z,99.90
2019-04-27T06:14:39.223Z,99.90
2019-04-27T06:17:09.325Z,99.90
2019-04-27T06:19:39.084Z,99.90
2019-04-27T06:22:09.536Z,99.90
2019-04-27T06:24:39.583Z,99.90
2019-04-27T06:27:09.385Z,99.90
2019-04-27T06:29:39.318Z,99.90
2019-04-27T06:32:09.011Z,99.90
2019-04-27T06:34:39.062Z,99.90
2019-04-27T06:37:09.454Z,99.90
2019-04-27T06:39:38.644Z,99.90
2019-04-27T06:42:17.968Z,99.90
2019-04-27T06:44:37.405Z,99.90
2019-04-27T06:47:05.815Z,99.90
2019-04-27T06:49:34.229Z,99.90
2019-04-27T06:52:02.637Z,99.90
2019-04-27T06:54:31.106Z,99.90
2019-04-27T06:56:59.518Z,99.90
2019-04-27T06:59:28.885Z,99.90
2019-04-27T07:02:00.520Z,99.90
2019-04-27T07:04:29.359Z,99.90
2019-04-27T07:06:59.459Z,99.90
2019-04-27T07:09:29.487Z,99.90
2019-04-27T07:11:59.274Z,99.90
2019-04-27T07:14:29.449Z,99.90
2019-04-27T07:16:59.091Z,99.90
2019-04-27T07:19:28.727Z,99.90
2019-04-27T07:21:57.315Z,99.90
2019-04-27T07:24:25.713Z,99.90
2019-04-27T07:26:54.125Z,99.90
2019-04-27T07:29:23.245Z,99.90
2019-04-27T07:31:51.828Z,99.90
2019-04-27T07:34:20.237Z,99.90
2019-04-27T07:36:49.251Z,99.90
2019-04-27T07:39:19.285Z,99.90
2019-04-27T07:41:48.737Z,99.90
2019-04-27T07:44:21.804Z,99.90
2019-04-27T07:47:09.716Z,99.90
2019-04-27T07:49:39.107Z,99.90
2019-04-27T07:52:08.730Z,99.90
2019-04-27T07:54:38.515Z,99.90
2019-04-27T07:57:07.564Z,99.90
2019-04-27T07:59:36.051Z,99.90
2019-04-27T08:02:04.621Z,99.90
2019-04-27T08:04:33.217Z,91.00
2019-04-27T08:07:02.131Z,73.60
2019-04-27T08:09:32.374Z,64.40
2019-04-27T08:12:00.923Z,63.30
2019-04-27T08:14:29.324Z,55.90
2019-04-27T08:16:58.644Z,56.20
2019-04-27T08:19:27.162Z,56.10
2019-04-27T08:21:55.574Z,52.20
2019-04-27T08:24:23.993Z,54.30
2019-04-27T08:26:54.065Z,52.10
2019-04-27T08:29:33.082Z,53.50
2019-04-27T08:32:19.631Z,49.80
2019-04-27T08:34:49.641Z,46.10
2019-04-27T08:37:18.815Z,46.20
2019-04-27T08:39:47.360Z,49.30
2019-04-27T08:42:15.812Z,51.30
2019-04-27T08:44:44.213Z,47.50
2019-04-27T08:47:12.630Z,43.00
2019-04-27T08:49:41.046Z,45.20
2019-04-27T08:52:09.616Z,49.10
2019-04-27T08:54:39.396Z,50.90
2019-04-27T08:59:43.886Z,56.90
2019-04-27T09:02:12.311Z,56.60
2019-04-27T09:04:40.726Z,65.00
2019-04-27T09:07:31.496Z,65.70
2019-04-27T09:09:59.617Z,61.80
2019-04-27T09:12:50.077Z,61.20
2019-04-27T09:15:29.224Z,58.00
2019-04-27T09:17:58.928Z,56.40
2019-04-27T09:20:39.013Z,55.90
2019-04-27T09:23:09.699Z,48.00
2019-04-27T09:25:39.508Z,48.30
2019-04-27T09:28:08.775Z,48.00
2019-04-27T09:30:39.134Z,49.50
2019-04-27T09:33:08.007Z,51.70
2019-04-27T09:35:36.411Z,54.60
2019-04-27T09:38:04.860Z,56.90
2019-04-27T09:40:33.805Z,58.00
2019-04-27T09:43:02.224Z,59.90
2019-04-27T09:45:30.626Z,56.80
2019-04-27T09:47:59.049Z,52.60
2019-04-27T09:50:28.306Z,47.50
2019-04-27T09:52:56.851Z,51.90
2019-04-27T09:55:26.351Z,55.00
2019-04-27T09:57:56.772Z,56.60
2019-04-27T10:00:25.393Z,57.70
2019-04-27T10:02:53.807Z,57.20
2019-04-27T10:05:22.283Z,56.40
2019-04-27T10:07:50.695Z,57.70
2019-04-27T10:10:19.532Z,58.30
2019-04-27T10:12:47.943Z,64.30
2019-04-27T10:15:16.739Z,66.70
2019-04-27T10:17:45.147Z,66.90
2019-04-27T10:20:13.733Z,66.80
2019-04-27T10:22:43.679Z,62.00
2019-04-27T10:25:14.330Z,64.80
2019-04-27T10:27:45.804Z,60.00
2019-04-27T10:30:15.615Z,57.00
2019-04-27T10:32:46.074Z,53.90
2019-04-27T10:35:16.019Z,51.90
2019-04-27T10:37:44.529Z,50.60
2019-04-27T10:40:13.010Z,45.40
2019-04-27T10:42:41.435Z,46.80
2019-04-27T10:45:11.675Z,44.10
2019-04-27T10:47:40.421Z,44.80
2019-04-27T10:50:09.172Z,43.60
2019-04-27T10:52:37.651Z,46.30
2019-04-27T10:55:06.298Z,49.60
2019-04-27T10:57:34.702Z,49.20
2019-04-27T11:00:06.687Z,48.50
2019-04-27T11:02:35.427Z,48.50
2019-04-27T11:05:07.924Z,48.40
2019-04-27T11:07:38.127Z,50.80
2019-04-27T11:10:08.184Z,51.70
2019-04-27T11:12:36.822Z,51.50
2019-04-27T11:15:09.620Z,51.40
2019-04-27T11:17:38.579Z,50.50
2019-04-27T11:20:10.756Z,49.60
2019-04-27T11:22:39.547Z,48.70
2019-04-27T11:25:09.436Z,50.60
2019-04-27T11:27:37.945Z,52.20
2019-04-27T11:30:08.677Z,52.10
2019-04-27T11:32:37.451Z,53.30
2019-04-27T11:35:15.691Z,54.50
2019-04-27T11:37:45.600Z,53.00
2019-04-27T11:40:14.793Z,54.80
2019-04-27T11:42:43.344Z,51.90
2019-04-27T11:45:12.059Z,52.30
2019-04-27T11:47:40.465Z,52.40
2019-04-27T11:50:10.229Z,53.40
2019-04-27T11:52:38.712Z,53.50
2019-04-27T11:55:08.146Z,51.80
2019-04-27T11:57:37.673Z,52.00
2019-04-27T12:00:12.607Z,48.20
2019-04-27T12:02:41.009Z,50.30
2019-04-27T12:05:10.923Z,50.20
2019-04-27T12:07:39.400Z,53.60
2019-04-27T12:10:08.738Z,53.40
2019-04-27T12:12:37.137Z,55.10
2019-04-27T12:15:07.733Z,55.00
2019-04-27T12:17:36.178Z,55.80
2019-04-27T12:20:07.906Z,61.60
2019-04-27T12:22:36.316Z,66.90
2019-04-27T12:25:07.162Z,68.20
2019-04-27T12:27:53.633Z,79.60
2019-04-27T12:30:23.818Z,84.90
2019-04-27T12:32:52.220Z,91.10
2019-04-27T12:35:20.640Z,92.70
2019-04-27T12:37:49.053Z,97.70
2019-04-27T12:40:17.557Z,99.90
2019-04-27T12:42:45.961Z,99.90
2019-04-27T12:45:16.546Z,99.90
2019-04-27T12:47:46.449Z,99.90
2019-04-27T12:50:17.219Z,99.90
2019-04-27T12:52:47.439Z,99.90
2019-04-27T12:55:17.633Z,99.90
2019-04-27T12:57:59.657Z,99.90
2019-04-27T13:00:45.871Z,99.90
2019-04-27T13:03:16.010Z,99.90
2019-04-27T13:05:44.554Z,99.90
2019-04-27T13:08:12.974Z,99.90
2019-04-27T13:10:41.445Z,99.90
2019-04-27T13:13:09.855Z,99.90
2019-04-27T13:15:38.350Z,99.90
2019-04-27T13:18:06.841Z,99.90
2019-04-27T13:20:35.902Z,99.90
2019-04-27T13:23:04.834Z,99.90
2019-04-27T13:25:33.342Z,99.90
2019-04-27T13:28:01.877Z,99.90
2019-04-27T13:30:30.283Z,99.90
2019-04-27T13:32:58.751Z,99.90
2019-04-27T13:35:27.598Z,99.90
2019-04-27T13:37:56.153Z,99.90
2019-04-27T13:40:25.949Z,99.90
2019-04-27T13:43:12.730Z,99.90
2019-04-27T13:45:55.124Z,99.90
2019-04-27T13:48:26.087Z,99.90
2019-04-27T13:51:03.167Z,99.90
2019-04-27T13:53:31.578Z,99.90
2019-04-27T13:56:01.628Z,99.90
2019-04-27T13:58:30.032Z,99.90
2019-04-27T14:00:58.435Z,99.90
2019-04-27T14:03:26.858Z,99.90
2019-04-27T14:05:56.901Z,99.90
2019-04-27T14:08:25.418Z,99.90
2019-04-27T14:10:53.826Z,99.90
2019-04-27T14:13:22.254Z,99.90
2019-04-27T14:15:50.830Z,99.90
2019-04-27T14:18:19.226Z,99.90
2019-04-27T14:20:48.675Z,99.90
2019-04-27T14:26:00.450Z,99.90
2019-04-27T14:28:29.069Z,99.90
2019-04-27T14:30:59.051Z,99.90
2019-04-27T14:33:28.390Z,99.90
2019-04-27T14:35:56.977Z,99.90
2019-04-27T14:38:25.411Z,99.90
2019-04-27T14:40:53.805Z,99.90
2019-04-27T14:43:22.218Z,99.90
2019-04-27T14:45:50.629Z,99.90
2019-04-27T14:48:19.062Z,99.90
2019-04-27T14:50:48.506Z,99.90
2019-04-27T14:53:17.198Z,99.90
2019-04-27T14:55:45.599Z,99.90
2019-04-27T14:58:14.006Z,99.90
2019-04-27T15:00:42.509Z,99.90
2019-04-27T15:03:10.939Z,99.90
2019-04-27T15:05:39.349Z,99.90
2019-04-27T15:08:09.697Z,99.90
2019-04-27T15:10:38.052Z,99.90
2019-04-27T15:13:08.283Z,99.90
2019-04-27T15:15:37.287Z,99.90
2019-04-27T15:18:05.954Z,99.90
2019-04-27T15:20:40.997Z,99.90
2019-04-27T15:23:10.165Z,99.90
2019-04-27T15:25:43.615Z,99.90
2019-04-27T15:28:12.117Z,99.90
2019-04-27T15:30:48.140Z,99.90
2019-04-27T15:33:18.192Z,99.90
2019-04-27T15:35:48.736Z,99.90
2019-04-27T15:38:18.850Z,99.90
2019-04-27T15:41:03.810Z,99.90
2019-04-27T15:43:33.862Z,99.90
2019-04-27T15:46:02.280Z,99.90
2019-04-27T15:48:33.977Z,99.90
2019-04-27T15:51:03.350Z,99.90
2019-04-27T15:53:30.953Z,99.90
2019-04-27T15:56:01.787Z,99.90
2019-04-27T15:58:29.597Z,99.90
2019-04-27T16:01:02.464Z,99.90
2019-04-27T16:03:31.324Z,99.90
2019-04-27T16:05:58.922Z,99.90
2019-04-27T16:08:28.818Z,99.90
2019-04-27T16:10:58.836Z,99.90
2019-04-27T16:13:32.944Z,99.90
2019-04-27T16:15:58.403Z,99.90
2019-04-27T16:18:31.037Z,99.90
2019-04-27T16:20:58.622Z,99.90
2019-04-27T16:23:28.217Z,99.90
2019-04-27T16:25:58.246Z,99.90
2019-04-27T16:28:27.118Z,99.90
2019-04-27T16:30:55.588Z,99.90
2019-04-27T16:33:24.005Z,99.90
2019-04-27T16:35:53.196Z,99.90
2019-04-27T16:38:26.741Z,99.90
2019-04-27T16:40:58.629Z,99.90
2019-04-27T16:43:30.025Z,99.90
2019-04-27T16:45:57.966Z,99.90
2019-04-27T16:48:28.068Z,99.90
2019-04-27T16:50:58.824Z,99.90
2019-04-27T16:53:25.358Z,99.90
2019-04-27T16:56:01.642Z,99.90
2019-04-27T16:58:25.690Z,99.90
2019-04-27T17:00:54.166Z,99.90
2019-04-27T17:03:22.667Z,99.90
2019-04-27T17:05:51.414Z,99.90
2019-04-27T17:08:22.401Z,99.90
2019-04-27T17:10:49.934Z,99.90
2019-04-27T17:13:18.899Z,99.90
2019-04-27T17:15:55.160Z,99.90
2019-04-27T17:18:38.567Z,99.90
2019-04-27T17:21:18.445Z,99.90
2019-04-27T17:23:38.770Z,99.90
2019-04-27T17:26:20.636Z,99.90
2019-04-27T17:28:39.317Z,99.90
2019-04-27T17:31:08.765Z,99.90
2019-04-27T17:33:39.896Z,99.90
2019-04-27T17:36:12.194Z,99.90
2019-04-27T17:38:42.538Z,99.90
2019-04-27T17:41:12.589Z,99.90
2019-04-27T17:43:41.498Z,99.90
2019-04-27T17:46:11.569Z,99.90
2019-04-27T17:48:40.269Z,99.90
2019-04-27T17:51:09.032Z,99.90
2019-04-27T17:53:37.734Z,99.90
2019-04-27T17:56:08.385Z,99.90
2019-04-27T17:58:39.651Z,99.90
2019-04-27T18:01:08.492Z,99.90
2019-04-27T18:03:38.707Z,99.90
2019-04-27T18:06:08.672Z,99.90
2019-04-27T18:08:40.017Z,99.90
2019-04-27T18:11:08.788Z,99.90
2019-04-27T18:13:38.851Z,99.90
2019-04-27T18:16:09.098Z,99.90
2019-04-27T18:18:40.420Z,99.90
2019-04-27T18:21:09.640Z,99.90
2019-04-27T18:23:39.709Z,99.90
2019-04-27T18:26:21.780Z,99.90
2019-04-27T18:28:53.875Z,99.90
2019-04-27T18:31:22.202Z,99.90
2019-04-27T18:33:50.606Z,99.90
2019-04-27T18:36:19.014Z,99.90
2019-04-27T18:38:47.452Z,99.90
2019-04-27T18:41:15.870Z,99.90
2019-04-27T18:43:50.667Z,99.90
2019-04-27T18:46:14.868Z,99.90
2019-04-27T18:48:50.281Z,99.90
2019-04-27T18:51:38.390Z,99.90
2019-04-27T18:54:08.140Z,99.90
2019-04-27T18:56:38.458Z,99.90
2019-04-27T18:59:08.409Z,99.90
2019-04-27T19:01:37.339Z,99.90
2019-04-27T19:04:05.826Z,99.90
2019-04-27T19:06:34.266Z,99.90
2019-04-27T19:09:02.680Z,99.90
2019-04-27T19:11:31.074Z,99.90
2019-04-27T19:13:59.487Z,99.90
2019-04-27T19:16:29.233Z,99.90
2019-04-27T19:18:58.433Z,99.90
2019-04-27T19:21:28.811Z,99.90
2019-04-27T19:23:58.453Z,99.90
2019-04-27T19:26:28.983Z,99.90
2019-04-27T19:28:59.138Z,99.90
2019-04-27T19:31:29.202Z,99.90
2019-04-27T19:33:57.596Z,99.90
2019-04-27T19:36:26.001Z,99.90
2019-04-27T19:38:54.403Z,99.90
2019-04-27T19:41:22.814Z,99.90
2019-04-27T19:43:51.210Z,99.90
2019-04-27T19:46:20.138Z,99.90
2019-04-27T19:48:49.979Z,99.90
2019-04-27T19:51:18.751Z,99.90
2019-04-27T19:53:47.149Z,99.90
2019-04-27T19:56:15.560Z,99.90
2019-04-27T19:58:45.605Z,99.90
2019-04-27T20:01:16.003Z,99.90
2019-04-27T20:04:04.258Z,99.90
2019-04-27T20:06:32.682Z,99.90
2019-04-27T20:09:19.251Z,99.90
2019-04-27T20:11:47.678Z,99.90
2019-04-27T20:14:16.158Z,99.90
2019-04-27T20:16:44.570Z,99.90
2019-04-27T20:19:12.974Z,99.90
2019-04-27T20:21:41.385Z,99.90
2019-04-27T20:24:11.679Z,99.90
2019-04-27T20:26:40.202Z,99.90
2019-04-27T20:29:08.922Z,99.90
2019-04-27T20:31:37.337Z,99.90
2019-04-27T20:34:05.755Z,99.90
2019-04-27T20:36:34.394Z,99.90
2019-04-27T20:39:05.690Z,99.90
2019-04-27T20:41:32.934Z,99.90
2019-04-27T20:44:02.332Z,99.90
2019-04-27T20:46:31.168Z,99.90
2019-04-27T20:49:01.345Z,99.90
2019-04-27T20:51:50.984Z,99.90
2019-04-27T20:54:21.481Z,99.90
2019-04-27T20:56:51.557Z,99.90
2019-04-27T20:59:21.933Z,99.90
2019-04-27T21:01:50.174Z,99.90
2019-04-27T21:04:20.981Z,99.90
2019-04-27T21:07:02.970Z,99.90
2019-04-27T21:09:32.347Z,99.90
2019-04-27T21:12:00.852Z,99.90
2019-04-27T21:14:29.344Z,99.90
2019-04-27T21:16:57.782Z,99.90
2019-04-27T21:19:26.377Z,99.90
2019-04-27T21:21:54.802Z,99.90
2019-04-27T21:24:24.636Z,99.90
2019-04-27T21:26:53.337Z,99.90
2019-04-27T21:29:21.733Z,99.90
2019-04-27T21:31:51.860Z,99.90
2019-04-27T21:34:20.434Z,99.90
2019-04-27T21:36:48.821Z,99.90
2019-04-27T21:39:17.237Z,99.90
2019-04-27T21:41:45.637Z,99.90
2019-04-27T21:44:14.047Z,99.90
2019-04-27T21:46:42.440Z,99.90
2019-04-27T21:49:12.676Z,99.90
2019-04-27T21:51:42.621Z,99.90
2019-04-27T21:54:12.665Z,99.90
2019-04-27T21:56:41.636Z,99.90
2019-04-27T21:59:11.109Z,99.90
2019-04-27T22:01:41.443Z,99.90
2019-04-27T22:04:11.433Z,99.90
2019-04-27T22:06:40.873Z,99.90
2019-04-27T22:09:12.677Z,99.90
2019-04-27T22:11:41.149Z,99.90
2019-04-27T22:14:11.545Z,99.90
2019-04-27T22:16:41.557Z,99.90
2019-04-27T22:19:11.924Z,99.90
2019-04-27T22:21:41.934Z,99.90
2019-04-27T22:24:14.869Z,99.90
2019-04-27T22:26:43.342Z,99.90
2019-04-27T22:29:12.154Z,99.90
2019-04-27T22:31:41.504Z,99.90
2019-04-27T22:34:10.854Z,99.90
2019-04-27T22:36:39.470Z,99.90
2019-04-27T22:39:09.622Z,99.90
2019-04-27T22:41:42.462Z,99.90
2019-04-27T22:44:21.562Z,99.90
2019-04-27T22:46:51.718Z,99.90
2019-04-27T22:49:21.111Z,99.90
2019-04-27T22:51:51.161Z,99.90
2019-04-27T22:54:21.639Z,99.90
2019-04-27T22:56:51.578Z,99.90
2019-04-27T22:59:24.678Z,99.90
2019-04-27T23:01:54.715Z,99.90
2019-04-27T23:04:24.758Z,99.90
2019-04-27T23:06:53.167Z,99.90
2019-04-27T23:09:21.904Z,99.90
2019-04-27T23:11:51.631Z,99.90
2019-04-27T23:14:21.207Z,99.90
2019-04-27T23:16:51.365Z,99.90
2019-04-27T23:19:21.029Z,99.90
2019-04-27T23:21:52.853Z,99.90
2019-04-27T23:24:20.857Z,99.90
2019-04-27T23:26:49.368Z,99.90
2019-04-27T23:29:17.769Z,99.90
2019-04-27T23:31:47.816Z,99.90
2019-04-27T23:34:16.450Z,99.90
2019-04-27T23:36:44.902Z,99.90
2019-04-27T23:39:13.470Z,99.90
2019-04-27T23:41:41.873Z,99.90
2019-04-27T23:44:10.269Z,99.90
2019-04-27T23:46:38.676Z,99.90
2019-04-27T23:49:07.072Z,99.90
2019-04-27T23:51:43.301Z,99.90
2019-04-27T23:54:11.699Z,99.90
2019-04-27T23:56:41.915Z,99.90
2019-04-27T23:59:10.239Z,99.90
